sensor_id;sensor_type;location;lat;lon;timestamp;P1;durP1;ratioP1;P2;durP2;ratioP2
17842;SDS011;69286;48.222;16.332;2023-12-29T00:01:56;32.57;;;17.57;;
17842;SDS011;69286;48.222;16.332;2023-12-29T00:04:24;32.70;;;19.10;;
17842;SDS011;69286;48.222;16.332;2023-12-29T00:06:51;32.83;;;20.23;;
17842;SDS011;69286;48.222;16.332;2023-12-29T00:09:18;36.07;;;20.30;;
17842;SDS011;69286;48.222;16.332;2023-12-29T00:11:46;31.57;;;19.53;;
17842;SDS011;69286;48.222;16.332;2023-12-29T00:14:13;30.97;;;18.83;;
17842;SDS011;69286;48.222;16.332;2023-12-29T00:16:41;33.03;;;19.60;;
17842;SDS011;69286;48.222;16.332;2023-12-29T00:19:09;29.83;;;18.53;;
17842;SDS011;69286;48.222;16.332;2023-12-29T00:21:36;30.07;;;18.87;;
17842;SDS011;69286;48.222;16.332;2023-12-29T00:24:03;28.03;;;16.70;;
17842;SDS011;69286;48.222;16.332;2023-12-29T00:26:31;31.27;;;17.67;;
17842;SDS011;69286;48.222;16.332;2023-12-29T00:28:58;27.73;;;17.63;;
17842;SDS011;69286;48.222;16.332;2023-12-29T00:31:25;27.37;;;17.77;;
17842;SDS011;69286;48.222;16.332;2023-12-29T00:33:53;27.27;;;17.07;;
17842;SDS011;69286;48.222;16.332;2023-12-29T00:36:20;27.20;;;17.17;;
17842;SDS011;69286;48.222;16.332;2023-12-29T00:38:47;28.37;;;17.20;;
17842;SDS011;69286;48.222;16.332;2023-12-29T00:41:14;30.70;;;18.70;;
17842;SDS011;69286;48.222;16.332;2023-12-29T00:43:41;25.20;;;16.20;;
17842;SDS011;69286;48.222;16.332;2023-12-29T00:46:08;25.27;;;16.80;;
17842;SDS011;69286;48.222;16.332;2023-12-29T00:48:35;27.33;;;16.67;;
17842;SDS011;69286;48.222;16.332;2023-12-29T00:51:03;25.53;;;16.57;;
17842;SDS011;69286;48.222;16.332;2023-12-29T00:53:30;25.30;;;17.13;;
17842;SDS011;69286;48.222;16.332;2023-12-29T00:55:59;27.60;;;17.07;;
17842;SDS011;69286;48.222;16.332;2023-12-29T00:58:26;25.83;;;16.43;;
17842;SDS011;69286;48.222;16.332;2023-12-29T01:00:53;27.33;;;16.20;;
17842;SDS011;69286;48.222;16.332;2023-12-29T01:03:20;24.33;;;16.33;;
17842;SDS011;69286;48.222;16.332;2023-12-29T01:05:47;25.93;;;17.07;;
17842;SDS011;69286;48.222;16.332;2023-12-29T01:08:15;23.47;;;15.57;;
17842;SDS011;69286;48.222;16.332;2023-12-29T01:10:42;24.80;;;16.10;;
17842;SDS011;69286;48.222;16.332;2023-12-29T01:13:10;25.63;;;17.57;;
17842;SDS011;69286;48.222;16.332;2023-12-29T01:15:37;23.13;;;15.20;;
17842;SDS011;69286;48.222;16.332;2023-12-29T01:18:05;24.63;;;15.10;;
17842;SDS011;69286;48.222;16.332;2023-12-29T01:20:32;24.70;;;16.27;;
17842;SDS011;69286;48.222;16.332;2023-12-29T01:22:59;24.60;;;16.30;;
17842;SDS011;69286;48.222;16.332;2023-12-29T01:25:30;23.63;;;16.50;;
17842;SDS011;69286;48.222;16.332;2023-12-29T01:27:57;28.03;;;17.40;;
17842;SDS011;69286;48.222;16.332;2023-12-29T01:30:24;28.70;;;16.87;;
17842;SDS011;69286;48.222;16.332;2023-12-29T01:32:51;26.70;;;16.87;;
17842;SDS011;69286;48.222;16.332;2023-12-29T01:35:17;29.90;;;17.70;;
17842;SDS011;69286;48.222;16.332;2023-12-29T01:37:44;32.23;;;18.07;;
17842;SDS011;69286;48.222;16.332;2023-12-29T01:40:12;29.70;;;17.63;;
17842;SDS011;69286;48.222;16.332;2023-12-29T01:42:40;29.33;;;18.30;;
17842;SDS011;69286;48.222;16.332;2023-12-29T01:45:08;33.13;;;18.83;;
17842;SDS011;69286;48.222;16.332;2023-12-29T01:47:47;34.70;;;19.27;;
17842;SDS011;69286;48.222;16.332;2023-12-29T01:50:14;33.23;;;20.00;;
17842;SDS011;69286;48.222;16.332;2023-12-29T01:52:42;31.33;;;19.57;;
17842;SDS011;69286;48.222;16.332;2023-12-29T01:55:12;30.60;;;19.37;;
17842;SDS011;69286;48.222;16.332;2023-12-29T01:57:45;33.30;;;20.70;;
17842;SDS011;69286;48.222;16.332;2023-12-29T02:00:14;32.07;;;19.97;;
17842;SDS011;69286;48.222;16.332;2023-12-29T02:02:43;34.80;;;20.57;;
17842;SDS011;69286;48.222;16.332;2023-12-29T02:05:13;33.80;;;20.47;;
17842;SDS011;69286;48.222;16.332;2023-12-29T02:07:41;37.07;;;21.03;;
17842;SDS011;69286;48.222;16.332;2023-12-29T02:10:08;35.73;;;20.50;;
17842;SDS011;69286;48.222;16.332;2023-12-29T02:12:38;31.77;;;19.23;;
17842;SDS011;69286;48.222;16.332;2023-12-29T02:15:07;32.27;;;19.20;;
17842;SDS011;69286;48.222;16.332;2023-12-29T02:17:36;33.30;;;19.60;;
17842;SDS011;69286;48.222;16.332;2023-12-29T02:20:08;31.00;;;18.10;;
17842;SDS011;69286;48.222;16.332;2023-12-29T02:22:36;34.37;;;20.17;;
17842;SDS011;69286;48.222;16.332;2023-12-29T02:25:05;31.17;;;18.67;;
17842;SDS011;69286;48.222;16.332;2023-12-29T02:27:34;33.77;;;18.93;;
17842;SDS011;69286;48.222;16.332;2023-12-29T02:30:12;29.97;;;17.90;;
17842;SDS011;69286;48.222;16.332;2023-12-29T02:32:47;32.83;;;17.90;;
17842;SDS011;69286;48.222;16.332;2023-12-29T02:35:17;25.37;;;15.73;;
17842;SDS011;69286;48.222;16.332;2023-12-29T02:37:49;35.67;;;17.37;;
17842;SDS011;69286;48.222;16.332;2023-12-29T02:40:17;26.33;;;15.43;;
17842;SDS011;69286;48.222;16.332;2023-12-29T02:42:45;26.37;;;15.83;;
17842;SDS011;69286;48.222;16.332;2023-12-29T02:45:13;27.87;;;16.23;;
17842;SDS011;69286;48.222;16.332;2023-12-29T02:47:40;25.37;;;15.93;;
17842;SDS011;69286;48.222;16.332;2023-12-29T02:50:08;24.77;;;16.83;;
17842;SDS011;69286;48.222;16.332;2023-12-29T02:52:36;24.80;;;16.17;;
17842;SDS011;69286;48.222;16.332;2023-12-29T02:55:03;27.70;;;16.00;;
17842;SDS011;69286;48.222;16.332;2023-12-29T02:57:32;25.83;;;16.00;;
17842;SDS011;69286;48.222;16.332;2023-12-29T02:59:59;23.97;;;15.33;;
17842;SDS011;69286;48.222;16.332;2023-12-29T03:02:26;27.77;;;16.27;;
17842;SDS011;69286;48.222;16.332;2023-12-29T03:04:53;24.97;;;14.67;;
17842;SDS011;69286;48.222;16.332;2023-12-29T03:07:20;27.97;;;16.30;;
17842;SDS011;69286;48.222;16.332;2023-12-29T03:09:46;24.60;;;15.07;;
17842;SDS011;69286;48.222;16.332;2023-12-29T03:12:15;26.20;;;15.00;;
17842;SDS011;69286;48.222;16.332;2023-12-29T03:14:45;24.53;;;14.23;;
17842;SDS011;69286;48.222;16.332;2023-12-29T03:17:12;27.97;;;15.90;;
17842;SDS011;69286;48.222;16.332;2023-12-29T03:19:39;26.40;;;16.47;;
17842;SDS011;69286;48.222;16.332;2023-12-29T03:22:06;25.03;;;15.33;;
17842;SDS011;69286;48.222;16.332;2023-12-29T03:24:34;25.67;;;15.63;;
17842;SDS011;69286;48.222;16.332;2023-12-29T03:27:01;29.63;;;16.73;;
17842;SDS011;69286;48.222;16.332;2023-12-29T03:29:28;25.80;;;15.97;;
17842;SDS011;69286;48.222;16.332;2023-12-29T03:31:56;22.13;;;14.27;;
17842;SDS011;69286;48.222;16.332;2023-12-29T03:34:23;26.73;;;14.63;;
17842;SDS011;69286;48.222;16.332;2023-12-29T03:36:50;23.43;;;14.40;;
17842;SDS011;69286;48.222;16.332;2023-12-29T03:39:17;22.70;;;14.17;;
17842;SDS011;69286;48.222;16.332;2023-12-29T03:41:44;28.10;;;15.10;;
17842;SDS011;69286;48.222;16.332;2023-12-29T03:44:11;23.90;;;15.07;;
17842;SDS011;69286;48.222;16.332;2023-12-29T03:46:38;22.40;;;13.17;;
17842;SDS011;69286;48.222;16.332;2023-12-29T03:49:07;15.87;;;9.60;;
17842;SDS011;69286;48.222;16.332;2023-12-29T03:51:34;12.43;;;7.67;;
17842;SDS011;69286;48.222;16.332;2023-12-29T03:54:01;6.27;;;4.90;;
17842;SDS011;69286;48.222;16.332;2023-12-29T03:56:28;4.53;;;4.07;;
17842;SDS011;69286;48.222;16.332;2023-12-29T03:58:55;5.27;;;3.47;;
17842;SDS011;69286;48.222;16.332;2023-12-29T04:01:22;3.33;;;3.07;;
17842;SDS011;69286;48.222;16.332;2023-12-29T04:03:50;3.07;;;2.73;;
17842;SDS011;69286;48.222;16.332;2023-12-29T04:06:18;3.40;;;3.10;;
17842;SDS011;69286;48.222;16.332;2023-12-29T04:08:45;4.50;;;3.23;;
17842;SDS011;69286;48.222;16.332;2023-12-29T04:11:11;3.27;;;2.33;;
17842;SDS011;69286;48.222;16.332;2023-12-29T04:13:38;5.10;;;2.83;;
17842;SDS011;69286;48.222;16.332;2023-12-29T04:16:05;2.67;;;2.47;;
17842;SDS011;69286;48.222;16.332;2023-12-29T04:18:32;3.63;;;2.47;;
17842;SDS011;69286;48.222;16.332;2023-12-29T04:20:59;3.00;;;2.67;;
17842;SDS011;69286;48.222;16.332;2023-12-29T04:23:28;2.83;;;2.20;;
17842;SDS011;69286;48.222;16.332;2023-12-29T04:25:54;3.10;;;2.70;;
17842;SDS011;69286;48.222;16.332;2023-12-29T04:28:20;2.90;;;2.50;;
17842;SDS011;69286;48.222;16.332;2023-12-29T04:30:47;2.87;;;2.47;;
17842;SDS011;69286;48.222;16.332;2023-12-29T04:33:14;2.73;;;2.40;;
17842;SDS011;69286;48.222;16.332;2023-12-29T04:35:41;2.67;;;2.30;;
17842;SDS011;69286;48.222;16.332;2023-12-29T04:38:08;2.93;;;2.67;;
17842;SDS011;69286;48.222;16.332;2023-12-29T04:40:37;2.80;;;2.50;;
17842;SDS011;69286;48.222;16.332;2023-12-29T04:43:04;2.00;;;1.90;;
17842;SDS011;69286;48.222;16.332;2023-12-29T04:45:31;3.57;;;2.60;;
17842;SDS011;69286;48.222;16.332;2023-12-29T04:47:58;2.33;;;2.13;;
17842;SDS011;69286;48.222;16.332;2023-12-29T04:50:25;2.50;;;2.30;;
17842;SDS011;69286;48.222;16.332;2023-12-29T04:52:52;3.83;;;2.20;;
17842;SDS011;69286;48.222;16.332;2023-12-29T04:55:19;2.10;;;2.00;;
17842;SDS011;69286;48.222;16.332;2023-12-29T04:57:48;2.00;;;1.83;;
17842;SDS011;69286;48.222;16.332;2023-12-29T05:00:15;2.50;;;2.30;;
17842;SDS011;69286;48.222;16.332;2023-12-29T05:02:42;2.80;;;2.60;;
17842;SDS011;69286;48.222;16.332;2023-12-29T05:05:09;2.50;;;2.30;;
17842;SDS011;69286;48.222;16.332;2023-12-29T05:07:36;2.50;;;2.30;;
17842;SDS011;69286;48.222;16.332;2023-12-29T05:10:03;2.00;;;1.90;;
17842;SDS011;69286;48.222;16.332;2023-12-29T05:12:31;2.23;;;2.00;;
17842;SDS011;69286;48.222;16.332;2023-12-29T05:14:59;2.40;;;2.20;;
17842;SDS011;69286;48.222;16.332;2023-12-29T05:17:26;2.70;;;2.50;;
17842;SDS011;69286;48.222;16.332;2023-12-29T05:19:53;2.40;;;2.13;;
17842;SDS011;69286;48.222;16.332;2023-12-29T05:22:20;2.50;;;2.30;;
17842;SDS011;69286;48.222;16.332;2023-12-29T05:24:47;2.40;;;2.20;;
17842;SDS011;69286;48.222;16.332;2023-12-29T05:27:14;3.87;;;2.40;;
17842;SDS011;69286;48.222;16.332;2023-12-29T05:29:41;2.40;;;2.20;;
17842;SDS011;69286;48.222;16.332;2023-12-29T05:32:10;2.80;;;2.40;;
17842;SDS011;69286;48.222;16.332;2023-12-29T05:34:38;2.50;;;2.30;;
17842;SDS011;69286;48.222;16.332;2023-12-29T05:37:05;3.23;;;2.77;;
17842;SDS011;69286;48.222;16.332;2023-12-29T05:39:32;4.03;;;2.30;;
17842;SDS011;69286;48.222;16.332;2023-12-29T05:41:59;2.77;;;2.13;;
17842;SDS011;69286;48.222;16.332;2023-12-29T05:44:26;4.07;;;2.37;;
17842;SDS011;69286;48.222;16.332;2023-12-29T05:46:53;2.47;;;2.27;;
17842;SDS011;69286;48.222;16.332;2023-12-29T05:49:25;2.77;;;2.37;;
17842;SDS011;69286;48.222;16.332;2023-12-29T05:51:52;2.73;;;2.53;;
17842;SDS011;69286;48.222;16.332;2023-12-29T05:54:19;3.47;;;2.80;;
17842;SDS011;69286;48.222;16.332;2023-12-29T05:56:46;3.90;;;2.80;;
17842;SDS011;69286;48.222;16.332;2023-12-29T05:59:13;3.37;;;2.70;;
17842;SDS011;69286;48.222;16.332;2023-12-29T06:01:40;3.57;;;2.57;;
17842;SDS011;69286;48.222;16.332;2023-12-29T06:04:07;3.97;;;3.03;;
17842;SDS011;69286;48.222;16.332;2023-12-29T06:06:35;6.90;;;4.70;;
17842;SDS011;69286;48.222;16.332;2023-12-29T06:09:02;3.83;;;3.33;;
17842;SDS011;69286;48.222;16.332;2023-12-29T06:11:29;2.97;;;2.73;;
17842;SDS011;69286;48.222;16.332;2023-12-29T06:13:56;2.43;;;2.23;;
17842;SDS011;69286;48.222;16.332;2023-12-29T06:16:24;3.20;;;2.80;;
17842;SDS011;69286;48.222;16.332;2023-12-29T06:18:52;3.20;;;2.53;;
17842;SDS011;69286;48.222;16.332;2023-12-29T06:21:19;3.23;;;2.80;;
17842;SDS011;69286;48.222;16.332;2023-12-29T06:23:48;3.07;;;2.80;;
17842;SDS011;69286;48.222;16.332;2023-12-29T06:26:15;2.50;;;2.30;;
17842;SDS011;69286;48.222;16.332;2023-12-29T06:28:43;4.23;;;2.50;;
17842;SDS011;69286;48.222;16.332;2023-12-29T06:31:10;2.93;;;2.43;;
17842;SDS011;69286;48.222;16.332;2023-12-29T06:33:40;3.43;;;2.63;;
17842;SDS011;69286;48.222;16.332;2023-12-29T06:36:08;2.83;;;2.50;;
17842;SDS011;69286;48.222;16.332;2023-12-29T06:38:35;4.23;;;3.17;;
17842;SDS011;69286;48.222;16.332;2023-12-29T06:41:04;8.60;;;3.23;;
17842;SDS011;69286;48.222;16.332;2023-12-29T06:43:32;3.37;;;2.77;;
17842;SDS011;69286;48.222;16.332;2023-12-29T06:45:59;5.50;;;3.70;;
17842;SDS011;69286;48.222;16.332;2023-12-29T06:48:26;4.67;;;4.03;;
17842;SDS011;69286;48.222;16.332;2023-12-29T06:50:53;5.97;;;4.60;;
17842;SDS011;69286;48.222;16.332;2023-12-29T06:53:20;6.93;;;4.80;;
17842;SDS011;69286;48.222;16.332;2023-12-29T06:55:47;7.50;;;5.20;;
17842;SDS011;69286;48.222;16.332;2023-12-29T06:58:16;10.80;;;5.43;;
17842;SDS011;69286;48.222;16.332;2023-12-29T07:00:43;9.00;;;5.93;;
17842;SDS011;69286;48.222;16.332;2023-12-29T07:03:12;7.47;;;5.60;;
17842;SDS011;69286;48.222;16.332;2023-12-29T07:05:39;7.57;;;5.77;;
17842;SDS011;69286;48.222;16.332;2023-12-29T07:08:07;7.23;;;5.77;;
17842;SDS011;69286;48.222;16.332;2023-12-29T07:10:34;21.80;;;11.13;;
17842;SDS011;69286;48.222;16.332;2023-12-29T07:13:01;13.73;;;8.57;;
17842;SDS011;69286;48.222;16.332;2023-12-29T07:15:30;10.80;;;7.10;;
17842;SDS011;69286;48.222;16.332;2023-12-29T07:17:57;11.33;;;7.17;;
17842;SDS011;69286;48.222;16.332;2023-12-29T07:20:24;10.07;;;7.10;;
17842;SDS011;69286;48.222;16.332;2023-12-29T07:22:51;10.10;;;7.10;;
17842;SDS011;69286;48.222;16.332;2023-12-29T07:25:18;10.40;;;6.53;;
17842;SDS011;69286;48.222;16.332;2023-12-29T07:27:45;10.10;;;7.27;;
17842;SDS011;69286;48.222;16.332;2023-12-29T07:30:14;10.80;;;6.90;;
17842;SDS011;69286;48.222;16.332;2023-12-29T07:32:43;10.20;;;7.67;;
17842;SDS011;69286;48.222;16.332;2023-12-29T07:35:10;12.23;;;8.53;;
17842;SDS011;69286;48.222;16.332;2023-12-29T07:37:40;13.57;;;8.50;;
17842;SDS011;69286;48.222;16.332;2023-12-29T07:40:08;14.83;;;9.73;;
17842;SDS011;69286;48.222;16.332;2023-12-29T07:42:37;18.30;;;10.17;;
17842;SDS011;69286;48.222;16.332;2023-12-29T07:45:06;14.57;;;9.27;;
17842;SDS011;69286;48.222;16.332;2023-12-29T07:47:34;14.83;;;9.60;;
17842;SDS011;69286;48.222;16.332;2023-12-29T07:50:03;13.67;;;9.80;;
17842;SDS011;69286;48.222;16.332;2023-12-29T07:52:30;15.70;;;10.33;;
17842;SDS011;69286;48.222;16.332;2023-12-29T07:54:57;13.73;;;9.60;;
17842;SDS011;69286;48.222;16.332;2023-12-29T07:57:25;13.43;;;9.47;;
17842;SDS011;69286;48.222;16.332;2023-12-29T07:59:52;12.13;;;8.83;;
17842;SDS011;69286;48.222;16.332;2023-12-29T08:02:19;17.47;;;10.23;;
17842;SDS011;69286;48.222;16.332;2023-12-29T08:04:46;13.77;;;9.70;;
17842;SDS011;69286;48.222;16.332;2023-12-29T08:07:15;13.20;;;9.23;;
17842;SDS011;69286;48.222;16.332;2023-12-29T08:09:42;15.20;;;9.40;;
17842;SDS011;69286;48.222;16.332;2023-12-29T08:12:09;14.27;;;9.77;;
17842;SDS011;69286;48.222;16.332;2023-12-29T08:14:36;19.50;;;10.33;;
17842;SDS011;69286;48.222;16.332;2023-12-29T08:17:03;12.53;;;8.77;;
17842;SDS011;69286;48.222;16.332;2023-12-29T08:19:30;10.97;;;8.80;;
17842;SDS011;69286;48.222;16.332;2023-12-29T08:21:57;15.10;;;9.77;;
17842;SDS011;69286;48.222;16.332;2023-12-29T08:24:26;14.00;;;9.33;;
17842;SDS011;69286;48.222;16.332;2023-12-29T08:26:52;13.83;;;9.77;;
17842;SDS011;69286;48.222;16.332;2023-12-29T08:29:19;14.57;;;9.73;;
17842;SDS011;69286;48.222;16.332;2023-12-29T08:31:46;13.50;;;9.50;;
17842;SDS011;69286;48.222;16.332;2023-12-29T08:34:13;13.87;;;10.17;;
17842;SDS011;69286;48.222;16.332;2023-12-29T08:36:41;15.53;;;10.00;;
17842;SDS011;69286;48.222;16.332;2023-12-29T08:39:08;14.47;;;10.17;;
17842;SDS011;69286;48.222;16.332;2023-12-29T08:41:38;18.10;;;11.10;;
17842;SDS011;69286;48.222;16.332;2023-12-29T08:44:05;17.73;;;10.60;;
17842;SDS011;69286;48.222;16.332;2023-12-29T08:46:32;16.57;;;10.73;;
17842;SDS011;69286;48.222;16.332;2023-12-29T08:48:59;14.97;;;10.53;;
17842;SDS011;69286;48.222;16.332;2023-12-29T08:51:27;18.27;;;10.13;;
17842;SDS011;69286;48.222;16.332;2023-12-29T08:53:54;18.93;;;10.57;;
17842;SDS011;69286;48.222;16.332;2023-12-29T08:56:21;16.80;;;10.77;;
17842;SDS011;69286;48.222;16.332;2023-12-29T08:58:49;18.93;;;10.30;;
17842;SDS011;69286;48.222;16.332;2023-12-29T09:01:16;15.67;;;10.70;;
17842;SDS011;69286;48.222;16.332;2023-12-29T09:03:43;15.20;;;10.27;;
17842;SDS011;69286;48.222;16.332;2023-12-29T09:06:10;17.33;;;11.03;;
17842;SDS011;69286;48.222;16.332;2023-12-29T09:08:37;14.23;;;9.90;;
17842;SDS011;69286;48.222;16.332;2023-12-29T09:11:04;20.53;;;10.60;;
17842;SDS011;69286;48.222;16.332;2023-12-29T09:13:31;19.97;;;10.67;;
17842;SDS011;69286;48.222;16.332;2023-12-29T09:16:00;16.93;;;11.07;;
17842;SDS011;69286;48.222;16.332;2023-12-29T09:18:27;16.47;;;10.50;;
17842;SDS011;69286;48.222;16.332;2023-12-29T09:20:54;18.60;;;10.93;;
17842;SDS011;69286;48.222;16.332;2023-12-29T09:23:21;21.43;;;11.00;;
17842;SDS011;69286;48.222;16.332;2023-12-29T09:25:48;17.03;;;10.43;;
17842;SDS011;69286;48.222;16.332;2023-12-29T09:28:15;17.97;;;11.23;;
17842;SDS011;69286;48.222;16.332;2023-12-29T09:30:42;20.53;;;10.77;;
17842;SDS011;69286;48.222;16.332;2023-12-29T09:33:10;17.90;;;10.83;;
17842;SDS011;69286;48.222;16.332;2023-12-29T09:35:38;19.70;;;11.40;;
17842;SDS011;69286;48.222;16.332;2023-12-29T09:38:05;16.13;;;11.10;;
17842;SDS011;69286;48.222;16.332;2023-12-29T09:40:35;18.13;;;11.47;;
17842;SDS011;69286;48.222;16.332;2023-12-29T09:43:03;16.60;;;10.83;;
17842;SDS011;69286;48.222;16.332;2023-12-29T09:45:30;17.93;;;12.37;;
17842;SDS011;69286;48.222;16.332;2023-12-29T09:48:01;15.90;;;11.50;;
17842;SDS011;69286;48.222;16.332;2023-12-29T09:50:30;18.53;;;11.63;;
17842;SDS011;69286;48.222;16.332;2023-12-29T09:52:58;18.97;;;11.13;;
17842;SDS011;69286;48.222;16.332;2023-12-29T09:55:28;14.03;;;10.23;;
17842;SDS011;69286;48.222;16.332;2023-12-29T09:57:55;16.37;;;10.30;;
17842;SDS011;69286;48.222;16.332;2023-12-29T10:00:24;14.23;;;10.57;;
17842;SDS011;69286;48.222;16.332;2023-12-29T10:02:51;16.60;;;9.90;;
17842;SDS011;69286;48.222;16.332;2023-12-29T10:05:19;19.10;;;10.77;;
17842;SDS011;69286;48.222;16.332;2023-12-29T10:07:48;17.37;;;10.63;;
17842;SDS011;69286;48.222;16.332;2023-12-29T10:10:16;19.13;;;10.23;;
17842;SDS011;69286;48.222;16.332;2023-12-29T10:12:44;15.20;;;10.27;;
17842;SDS011;69286;48.222;16.332;2023-12-29T10:15:15;16.47;;;10.43;;
17842;SDS011;69286;48.222;16.332;2023-12-29T10:17:49;20.67;;;11.67;;
17842;SDS011;69286;48.222;16.332;2023-12-29T10:20:24;16.83;;;10.53;;
17842;SDS011;69286;48.222;16.332;2023-12-29T10:23:04;17.90;;;10.97;;
17842;SDS011;69286;48.222;16.332;2023-12-29T10:25:34;15.13;;;10.70;;
17842;SDS011;69286;48.222;16.332;2023-12-29T10:28:02;20.67;;;10.97;;
17842;SDS011;69286;48.222;16.332;2023-12-29T10:30:29;22.37;;;11.30;;
17842;SDS011;69286;48.222;16.332;2023-12-29T10:32:56;18.83;;;10.70;;
17842;SDS011;69286;48.222;16.332;2023-12-29T10:35:25;16.97;;;10.73;;
17842;SDS011;69286;48.222;16.332;2023-12-29T10:37:52;17.27;;;10.67;;
17842;SDS011;69286;48.222;16.332;2023-12-29T10:40:20;17.23;;;10.27;;
17842;SDS011;69286;48.222;16.332;2023-12-29T10:42:53;12.40;;;7.67;;
17842;SDS011;69286;48.222;16.332;2023-12-29T10:45:22;9.63;;;5.27;;
17842;SDS011;69286;48.222;16.332;2023-12-29T10:47:50;3.20;;;2.90;;
17842;SDS011;69286;48.222;16.332;2023-12-29T10:50:17;3.60;;;3.30;;
17842;SDS011;69286;48.222;16.332;2023-12-29T10:52:44;3.20;;;2.90;;
17842;SDS011;69286;48.222;16.332;2023-12-29T10:55:11;2.30;;;2.20;;
17842;SDS011;69286;48.222;16.332;2023-12-29T10:57:40;3.07;;;2.13;;
17842;SDS011;69286;48.222;16.332;2023-12-29T11:00:08;2.50;;;2.13;;
17842;SDS011;69286;48.222;16.332;2023-12-29T11:02:37;1.87;;;1.77;;
17842;SDS011;69286;48.222;16.332;2023-12-29T11:05:05;2.03;;;1.90;;
17842;SDS011;69286;48.222;16.332;2023-12-29T11:07:34;2.00;;;1.90;;
17842;SDS011;69286;48.222;16.332;2023-12-29T11:10:02;2.50;;;2.03;;
17842;SDS011;69286;48.222;16.332;2023-12-29T11:12:31;2.57;;;1.90;;
17842;SDS011;69286;48.222;16.332;2023-12-29T11:15:02;2.17;;;1.97;;
17842;SDS011;69286;48.222;16.332;2023-12-29T11:17:30;2.33;;;1.90;;
17842;SDS011;69286;48.222;16.332;2023-12-29T11:19:59;2.40;;;2.10;;
17842;SDS011;69286;48.222;16.332;2023-12-29T11:22:27;2.10;;;1.90;;
17842;SDS011;69286;48.222;16.332;2023-12-29T11:24:56;2.00;;;1.90;;
17842;SDS011;69286;48.222;16.332;2023-12-29T11:27:25;2.17;;;1.97;;
17842;SDS011;69286;48.222;16.332;2023-12-29T11:29:55;2.90;;;1.73;;
17842;SDS011;69286;48.222;16.332;2023-12-29T11:32:24;2.50;;;2.03;;
17842;SDS011;69286;48.222;16.332;2023-12-29T11:35:10;2.97;;;1.70;;
17842;SDS011;69286;48.222;16.332;2023-12-29T11:37:56;2.60;;;1.70;;
17842;SDS011;69286;48.222;16.332;2023-12-29T11:40:34;2.67;;;1.90;;
17842;SDS011;69286;48.222;16.332;2023-12-29T11:43:08;1.57;;;1.50;;
17842;SDS011;69286;48.222;16.332;2023-12-29T11:45:39;1.90;;;1.80;;
17842;SDS011;69286;48.222;16.332;2023-12-29T11:48:07;2.53;;;2.10;;
17842;SDS011;69286;48.222;16.332;2023-12-29T11:50:37;2.80;;;1.73;;
17842;SDS011;69286;48.222;16.332;2023-12-29T11:53:05;1.93;;;1.73;;
17842;SDS011;69286;48.222;16.332;2023-12-29T11:55:33;6.23;;;1.80;;
17842;SDS011;69286;48.222;16.332;2023-12-29T11:58:01;2.10;;;1.67;;
17842;SDS011;69286;48.222;16.332;2023-12-29T12:00:42;2.10;;;2.00;;
17842;SDS011;69286;48.222;16.332;2023-12-29T12:03:16;5.20;;;2.30;;
17842;SDS011;69286;48.222;16.332;2023-12-29T12:05:45;7.80;;;4.93;;
17842;SDS011;69286;48.222;16.332;2023-12-29T12:08:29;5.37;;;3.20;;
17842;SDS011;69286;48.222;16.332;2023-12-29T12:10:57;8.40;;;5.03;;
17842;SDS011;69286;48.222;16.332;2023-12-29T12:13:45;2.47;;;2.00;;
17842;SDS011;69286;48.222;16.332;2023-12-29T12:19:16;2.33;;;1.93;;
17842;SDS011;69286;48.222;16.332;2023-12-29T12:21:45;3.13;;;2.20;;
17842;SDS011;69286;48.222;16.332;2023-12-29T12:24:14;2.17;;;1.90;;
17842;SDS011;69286;48.222;16.332;2023-12-29T12:26:41;2.60;;;1.80;;
17842;SDS011;69286;48.222;16.332;2023-12-29T12:29:08;1.67;;;1.57;;
17842;SDS011;69286;48.222;16.332;2023-12-29T12:31:37;2.83;;;2.00;;
17842;SDS011;69286;48.222;16.332;2023-12-29T12:34:18;2.63;;;1.93;;
17842;SDS011;69286;48.222;16.332;2023-12-29T12:36:47;2.70;;;1.90;;
17842;SDS011;69286;48.222;16.332;2023-12-29T12:39:15;2.60;;;2.00;;
17842;SDS011;69286;48.222;16.332;2023-12-29T12:41:42;3.50;;;2.27;;
17842;SDS011;69286;48.222;16.332;2023-12-29T12:44:10;6.03;;;3.63;;
17842;SDS011;69286;48.222;16.332;2023-12-29T12:46:39;4.60;;;3.53;;
17842;SDS011;69286;48.222;16.332;2023-12-29T12:49:11;3.60;;;2.57;;
17842;SDS011;69286;48.222;16.332;2023-12-29T12:51:40;2.73;;;2.40;;
17842;SDS011;69286;48.222;16.332;2023-12-29T12:54:07;2.40;;;2.10;;
17842;SDS011;69286;48.222;16.332;2023-12-29T12:56:34;2.60;;;2.07;;
17842;SDS011;69286;48.222;16.332;2023-12-29T12:59:02;3.60;;;2.37;;
17842;SDS011;69286;48.222;16.332;2023-12-29T13:01:29;2.47;;;1.97;;
17842;SDS011;69286;48.222;16.332;2023-12-29T13:04:01;2.83;;;2.07;;
17842;SDS011;69286;48.222;16.332;2023-12-29T13:06:30;2.30;;;2.10;;
17842;SDS011;69286;48.222;16.332;2023-12-29T13:08:59;2.47;;;2.10;;
17842;SDS011;69286;48.222;16.332;2023-12-29T13:11:28;3.47;;;2.30;;
17842;SDS011;69286;48.222;16.332;2023-12-29T13:13:55;3.53;;;3.10;;
17842;SDS011;69286;48.222;16.332;2023-12-29T13:16:31;2.53;;;2.27;;
17842;SDS011;69286;48.222;16.332;2023-12-29T13:21:41;2.37;;;1.90;;
17842;SDS011;69286;48.222;16.332;2023-12-29T13:24:09;3.23;;;2.30;;
17842;SDS011;69286;48.222;16.332;2023-12-29T13:26:37;2.13;;;1.93;;
17842;SDS011;69286;48.222;16.332;2023-12-29T13:29:04;3.03;;;2.30;;
17842;SDS011;69286;48.222;16.332;2023-12-29T13:31:32;2.43;;;2.23;;
17842;SDS011;69286;48.222;16.332;2023-12-29T13:33:59;2.63;;;1.97;;
17842;SDS011;69286;48.222;16.332;2023-12-29T13:36:33;3.03;;;2.00;;
17842;SDS011;69286;48.222;16.332;2023-12-29T13:39:05;2.10;;;1.90;;
17842;SDS011;69286;48.222;16.332;2023-12-29T13:41:37;3.40;;;2.30;;
17842;SDS011;69286;48.222;16.332;2023-12-29T13:44:04;3.33;;;2.50;;
17842;SDS011;69286;48.222;16.332;2023-12-29T13:46:33;3.50;;;2.60;;
17842;SDS011;69286;48.222;16.332;2023-12-29T13:49:01;3.43;;;2.73;;
17842;SDS011;69286;48.222;16.332;2023-12-29T13:51:29;7.00;;;2.90;;
17842;SDS011;69286;48.222;16.332;2023-12-29T13:53:59;14.87;;;4.20;;
17842;SDS011;69286;48.222;16.332;2023-12-29T13:56:27;4.33;;;3.37;;
17842;SDS011;69286;48.222;16.332;2023-12-29T13:58:56;2.97;;;2.57;;
17842;SDS011;69286;48.222;16.332;2023-12-29T14:01:29;2.60;;;2.30;;
17842;SDS011;69286;48.222;16.332;2023-12-29T14:04:03;3.13;;;2.70;;
17842;SDS011;69286;48.222;16.332;2023-12-29T14:06:37;2.67;;;2.40;;
17842;SDS011;69286;48.222;16.332;2023-12-29T14:09:09;4.90;;;3.33;;
17842;SDS011;69286;48.222;16.332;2023-12-29T14:11:43;4.20;;;2.30;;
17842;SDS011;69286;48.222;16.332;2023-12-29T14:14:20;3.03;;;2.60;;
17842;SDS011;69286;48.222;16.332;2023-12-29T14:16:49;2.87;;;2.30;;
17842;SDS011;69286;48.222;16.332;2023-12-29T14:19:17;2.83;;;2.47;;
17842;SDS011;69286;48.222;16.332;2023-12-29T14:21:45;3.10;;;2.80;;
17842;SDS011;69286;48.222;16.332;2023-12-29T14:24:15;3.80;;;2.57;;
17842;SDS011;69286;48.222;16.332;2023-12-29T14:26:53;3.00;;;2.67;;
17842;SDS011;69286;48.222;16.332;2023-12-29T14:29:25;2.77;;;2.40;;
17842;SDS011;69286;48.222;16.332;2023-12-29T14:31:52;2.30;;;2.10;;
17842;SDS011;69286;48.222;16.332;2023-12-29T14:34:21;2.33;;;2.13;;
17842;SDS011;69286;48.222;16.332;2023-12-29T14:36:48;3.00;;;2.40;;